Pikeville, Tennessee
Current Conditions -  °F | °C
As of 9:53 AM on Tuesday 21 Oct 2014 (Local Time) from KCSV Reporting Station
Clear Clear  
Wind Chill: 58°   Ceiling: Unl
Heat Index: 58°   Visibility: 10mi
Dew Point: 47°   Wind: 7mph
Humidity: 67%   Direction: 310°NW
Pressure: 30.07"   Gusts: NA
Location:  35.61°N, 85.19°W
Report Text: KCSV 211453Z AUTO 31006KT 10SM CLR 14/08 A3007 RMK AO2 SLP174 T01440083 51013
Loading
Personal Weather Stations






























Interactive Weather Map
Tropical Storm Tracking
New forecast layout! Learn more

10-Day Weather Forecast

Advertisements
Track Severe Weather on mobile